• Join FlightAware (Why Join?)
  • Login
  • US Flag 
05:50AM EDT


 

Airport Tracker/Info


-or-


 

Live Flight TrackerFlight Track Log ✈ BOE1 ✈ 01-Dec-2011 ✈ KBFI - KPMD

Flight Track Log - Related Links

Times and Time Zones

All times are in EST time to prevent confusion due to time zone crossing. See the BOE1 flight status page for this flight to view local times or setup timezone preferences in your user account.

Time Position Orientation Groundspeed Altitude Reporting Facility
EST Latitude Longitude Course Direction KTS MPH feet Rate Location/Type
12:02PM 47.5117 -122.2878 152° Southeast 176 203 1,300  Level Seattle Center
12:02PM 47.4922 -122.2722 150° Southeast 205 236 2,000 2,220 Climbing Seattle Center
12:03PM 47.4383 -122.2267 151° Southeast 260 299 4,300 2,400 Climbing Seattle Center
12:04PM 47.4047 -122.1986 169° South 272 313 5,700 1,680 Climbing Seattle Center
12:05PM 47.3289 -122.1778 175° South 286 329 7,100 2,100 Climbing Seattle Center
12:06PM 47.2494 -122.1675 173° South 289 333 10,100 2,520 Climbing Seattle Center
12:07PM 47.1528 -122.1503 165° South 370 426 12,300 2,700 Climbing Seattle Center
12:08PM 47.0464 -122.1083 170° South 404 465 15,600 2,760 Climbing Seattle Center
12:09PM 46.9019 -122.0697 170° South 447 514 18,000 2,460 Climbing Seattle Center
12:10PM 46.7739 -122.0381 169° South 469 540 20,700 2,340 Climbing Seattle Center
12:11PM 46.6433 -122.0000 166° South 478 550 22,800 2,400 Climbing Seattle Center
12:12PM 46.5108 -121.9508 164° South 495 570 25,700 2,220 Climbing Seattle Center
12:13PM 46.3756 -121.8944 165° South 509 586 27,400 1,860 Climbing Seattle Center
12:14PM 46.2122 -121.8331 165° South 530 610 29,500 1,800 Climbing Seattle Center
12:15PM 46.0681 -121.7775 166° South 538 619 31,100 1,380 Climbing Seattle Center
12:16PM 45.9206 -121.7244 165° South 549 632 32,400 900 Climbing Seattle Center
12:17PM 45.7681 -121.6667 165° South 556 640 33,000 240 Climbing Seattle Center
12:18PM 45.6136 -121.6064 165° South 572 658 33,000  Level Seattle Center
12:19PM 45.4642 -121.5508 165° South 567 652 33,000  Level Seattle Center
12:20PM 45.3114 -121.4936 166° South 566 651 33,000  Level Seattle Center
12:21PM 45.1314 -121.4281 165° South 564 649 33,000  Level Seattle Center
12:22PM 44.9792 -121.3722 165° South 568 654 33,000  Level Seattle Center
12:23PM 44.8283 -121.3172 166° South 567 652 33,000  Level Seattle Center
12:24PM 44.6772 -121.2631 166° South 567 652 33,000  Level Seattle Center
12:25PM 44.5142 -121.2047 166° South 572 658 33,000  Level Seattle Center
12:26PM 44.3586 -121.1494 165° South 573 659 33,000  Level Seattle Center
12:27PM 44.2150 -121.0967 166° South 580 667 33,000  Level Seattle Center
12:28PM 44.0294 -121.0336 166° South 576 663 33,000  Level Seattle Center
12:29PM 43.8744 -120.9803 166° South 577 664 33,000  Level Seattle Center
12:30PM 43.7189 -120.9278 165° South 576 663 33,000  Level Seattle Center
12:31PM 43.5672 -120.8736 166° South 573 659 33,000  Level Seattle Center
12:32PM 43.4281 -120.8256 166° South 575 662 33,000  Level Seattle Center
12:33PM 43.2406 -120.7617 166° South 576 663 33,000  Level Seattle Center
12:34PM 43.0836 -120.7075 166° South 579 666 33,000  Level Seattle Center
12:35PM 42.9278 -120.6547 166° South 576 663 33,000  Level Seattle Center
12:36PM 42.7717 -120.6019 166° South 576 663 33,000  Level Seattle Center
12:37PM 42.6197 -120.5508 166° South 566 651 33,000  Level Seattle Center
12:38PM 42.4636 -120.4992 167° South 571 657 33,000  Level Seattle Center
12:39PM 42.3067 -120.4508 168° South 576 663 33,000  Level Seattle Center
12:40PM 42.1486 -120.4050 168° South 577 664 33,000  Level Seattle Center
12:41PM 41.9919 -120.3583 167° South 576 663 33,000  Level Seattle Center
12:43PM 41.8331 -120.3108 167° South 574 661 33,000  Level Seattle Center
12:44PM 41.6786 -120.2644 168° South 575 662 33,000  Level Seattle Center
12:45PM 41.5217 -120.2194 168° South 575 662 33,000  Level Seattle Center
12:46PM 41.3642 -120.1753 175° South 577 664 33,000  Level Seattle Center
12:47PM 41.1667 -120.1528 175° South 589 678 33,000  Level Seattle Center
12:48PM 41.0022 -120.1353 176° South 591 680 33,000  Level Seattle Center
12:49PM 40.8369 -120.1194 176° South 592 681 33,000  Level Seattle Center
12:50PM 40.6731 -120.1047 180° South 591 680 33,000  Level Seattle Center
12:50PM 40.5911 -120.1042 175° South 596 686 33,000  Level Oakland Center
12:51PM 40.4119 -120.0819 175° South 596 686 33,000  Level Oakland Center
12:52PM 40.2492 -120.0622 168° South 596 686 33,000  Level Oakland Center
12:53PM 40.0861 -120.0183 168° South 596 686 33,000  Level Oakland Center
12:54PM 39.9233 -119.9719 167° South 596 686 33,100 -300 Climbing Oakland Center
12:55PM 39.7769 -119.9281 167° South 601 692 32,500 -1,020 Descending Oakland Center
12:56PM 39.6222 -119.8817 167° South 601 692 31,100 -1,500 Descending Oakland Center
12:57PM 39.4653 -119.8358 167° South 589 678 29,500 -1,560 Descending Oakland Center
12:58PM 39.3064 -119.7900 168° South 584 672 28,000 -1,260 Descending Oakland Center
12:59PM 39.1539 -119.7469 167° South 584 672 27,000 -540 Descending Oakland Center
01:00PM 39.0033 -119.7014 168° South 573 659 27,000  Level Oakland Center
01:01PM 38.8525 -119.6589 168° South 564 649 27,000  Level Oakland Center
01:02PM 38.6956 -119.6164 167° South 564 649 27,000  Level Oakland Center
01:03PM 38.5386 -119.5689 167° South 574 661 27,000  Level Oakland Center
01:04PM 38.3817 -119.5217 167° South 574 661 27,000  Level Oakland Center
01:05PM 38.2247 -119.4744 168° South 579 666 27,000  Level Oakland Center
01:06PM 38.0489 -119.4253 169° South 584 672 27,000  Level Oakland Center
01:07PM 37.8878 -119.3839 167° South 584 672 27,000 -60 Level Oakland Center
01:08PM 37.7264 -119.3375 170° South 590 679 26,900  Descending Oakland Center
01:09PM 37.5694 -119.3017 168° South 595 685 27,000  Climbing Oakland Center
01:10PM 37.4167 -119.2608 167° South 576 663 26,900  Descending Oakland Center
01:11PM 37.2636 -119.2172 168° South 570 656 27,000  Climbing Oakland Center
01:12PM 37.1044 -119.1742 167° South 565 650 27,000  Level Oakland Center
01:13PM 36.9514 -119.1308 168° South 570 656 27,000  Level Oakland Center
01:14PM 36.7964 -119.0906 167° South 565 650 27,000  Level Oakland Center
01:15PM 36.6392 -119.0453 168° South 571 657 27,000  Level Oakland Center
01:17PM 36.3353 -118.9647 166° South 559 643 27,000  Level Los Angeles Center
01:18PM 36.1881 -118.9208 169° South 559 643 27,000  Level Los Angeles Center
01:19PM 36.0367 -118.8847 168° South 559 643 27,000 -540 Level Los Angeles Center
01:20PM 35.8956 -118.8467 167° South 543 625 26,000 -1,440 Descending Los Angeles Center
01:21PM 35.7608 -118.8086 168° South 525 604 24,200 -1,260 Descending Los Angeles Center
01:22PM 35.6281 -118.7736 168° South 504 580 23,500 -1,620 Descending Los Angeles Center
01:23PM 35.4994 -118.7414 168° South 484 557 21,000 -2,400 Descending Los Angeles Center
01:24PM 35.3728 -118.7092 168° South 478 550 18,700 -2,340 Descending Los Angeles Center
01:25PM 35.2525 -118.6775 169° South 461 531 16,400 -2,340 Descending Los Angeles Center
01:26PM 35.1361 -118.6486 165° South 448 516 14,100 -2,220 Descending Los Angeles Center
01:27PM 35.0200 -118.6119 134° Southeast 437 503 12,000 -1,680 Descending Los Angeles Center
01:28PM 34.9489 -118.5236 131° Southeast 397 457 10,800 -900 Descending Los Angeles Center
01:29PM 34.8858 -118.4358 129° Southeast 344 396 10,200 -1,200 Descending Los Angeles Center
01:30PM 34.8392 -118.3661 132° Southeast 309 356 8,400 -1,740 Descending Los Angeles Center
01:31PM 34.7883 -118.2964 127° Southeast 289 333 6,800 -1,380 Descending Los Angeles Center
01:32PM 34.7456 -118.2269 109° East 269 310 5,700 -900 Descending Los Angeles Center
01:33PM 34.7219 -118.1456 105° East 255 293 5,000 -360 Descending Los Angeles Center
01:34PM 34.7064 -118.0744 100° East 234 269 5,000  Level Los Angeles Center
01:35PM 34.6969 -118.0086 89° East 214 246 5,000  Level Los Angeles Center
01:36PM 34.6981 -117.9403 98° East 203 234 5,000  Level Los Angeles Center
01:37PM 34.6908 -117.8744 187° South 196 226 5,000 -60 Level Los Angeles Center
01:38PM 34.6428 -117.8811 265° West 122 140 4,900 -240 Descending Los Angeles Center
01:39PM 34.6375 -117.9492 269° West 111 128 4,600 -660 Descending Los Angeles Center
01:40PM 34.6367 -118.0097 266° West 146 168 3,600 -840 Descending Los Angeles Center
01:41PM 34.6336 -118.0678 261° West 171 197 3,000 -300 Descending Los Angeles Center
01:42PM 34.6264 -118.1256 179° South 176 203 3,100 60 Climbing Los Angeles Center
01:43PM 34.5950 -118.1247 51° Northeast 93 107 3,200 -300 Climbing Los Angeles Center
01:44PM 34.6164 -118.0925 51° Northeast 40 46 2,500 -720 Descending Los Angeles Center